• Join FlightAware (Why Join?)
  • Login
  • US Flag 
01:58PM EDT


 

Airport Tracker/Info


-or-


 

Live Flight TrackerFlight Track Log ✈ FLG3306 ✈ 20-Sep-2013 ✈ KJAX - KLGA

Flight Track Log - Related Links

Times and Time Zones

All times are in EDT time to prevent confusion due to time zone crossing. See the FLG3306 flight status page for this flight to view local times or setup timezone preferences in your user account.

Time Position Orientation Groundspeed Altitude Reporting Facility
EDT Latitude Longitude Course Direction KTS MPH feet Rate Location/Type
11:31AM 30.5069 -81.6628 61° Northeast 162 186 800  Level Jacksonville Center
11:31AM 30.5172 -81.6411 61° Northeast 174 200 1,600 1,560 Climbing Jacksonville Center
11:32AM 30.5506 -81.6383 North 224 258 2,600 1,620 Climbing Jacksonville Center
11:32AM 30.5797 -81.6403 357° North 250 288 3,300 2,340 Climbing Jacksonville Center
11:33AM 30.6550 -81.6514 353° North 274 315 5,900 2,640 Climbing Jacksonville Center
11:34AM 30.7303 -81.6625 353° North 279 321 8,600 2,580 Climbing Jacksonville Center
11:35AM 30.8097 -81.6711 355° North 279 321 11,200 1,680 Climbing Jacksonville Center
11:36AM 30.8994 -81.6506 11° North 301 346 12,000 1,500 Climbing Jacksonville Center
11:37AM 30.9931 -81.6178 17° North 319 367 14,200 1,980 Climbing Jacksonville Center
11:38AM 31.0908 -81.5825 17° North 337 388 16,000 1,740 Climbing Jacksonville Center
11:39AM 31.1886 -81.5447 18° North 366 421 17,700 1,440 Climbing Jacksonville Center
11:40AM 31.2906 -81.5092 17° North 371 427 18,900 1,260 Climbing Jacksonville Center
11:41AM 31.3964 -81.4711 17° North 380 437 20,300 1,380 Climbing Jacksonville Center
11:42AM 31.5025 -81.4331 17° North 386 444 21,700 1,200 Climbing Jacksonville Center
11:43AM 31.6128 -81.3922 18° North 398 458 22,800 960 Climbing Jacksonville Center
11:44AM 31.7125 -81.3564 17° North 403 464 23,700 1,080 Climbing Jacksonville Center
11:45AM 31.8372 -81.3103 17° North 416 479 25,000 1,140 Climbing Jacksonville Center
11:46AM 31.9536 -81.2692 17° North 428 493 26,000 900 Climbing Jacksonville Center
11:47AM 32.0656 -81.2158 22° Northeast 428 493 26,900 1,140 Climbing Jacksonville Center
11:48AM 32.1631 -81.1550 28° Northeast 434 499 28,300 1,260 Climbing Jacksonville Center
11:49AM 32.2686 -81.0942 26° Northeast 428 493 29,500 1,260 Climbing Jacksonville Center
11:50AM 32.3864 -81.0206 28° Northeast 422 486 30,900 1,140 Climbing Jacksonville Center
11:51AM 32.4794 -80.9569 30° Northeast 428 493 31,900 1,080 Climbing Jacksonville Center
11:52AM 32.5850 -80.8956 26° Northeast 422 486 33,100 1,080 Climbing Jacksonville Center
11:53AM 32.6883 -80.8314 28° Northeast 422 486 34,100 900 Climbing Jacksonville Center
11:54AM 32.7897 -80.7725 26° Northeast 414 476 35,000 420 Climbing Jacksonville Center
11:55AM 32.8950 -80.7056 28° Northeast 414 476 35,000  Level Jacksonville Center
11:56AM 33.0003 -80.6411 27° Northeast 414 476 35,000  Level Jacksonville Center
11:57AM 33.1075 -80.5739 28° Northeast 426 490 35,000  Level Jacksonville Center
11:58AM 33.2231 -80.5014 28° Northeast 432 497 35,000  Level Jacksonville Center
11:59AM 33.3303 -80.4339 28° Northeast 438 504 35,000  Level Jacksonville Center
12:00PM 33.4397 -80.3661 27° Northeast 438 504 35,000  Level Jacksonville Center
12:01PM 33.5508 -80.2958 28° Northeast 444 511 35,000  Level Jacksonville Center
12:02PM 33.6622 -80.2250 28° Northeast 450 518 35,000  Level Jacksonville Center
12:03PM 33.7878 -80.1489 27° Northeast 458 527 35,000  Level Jacksonville Center
12:04PM 33.8947 -80.0778 29° Northeast 447 514 35,000  Level Jacksonville Center
12:05PM 33.9892 -80.0147 29° Northeast 435 501 35,000  Level Jacksonville Center
12:06PM 34.1025 -79.9458 27° Northeast 440 506 35,000  Level Jacksonville Center
12:07PM 34.2133 -79.8742 28° Northeast 440 506 35,000  Level Jacksonville Center
12:09PM 34.3850 -79.7617 28° Northeast 453 521 35,000  Level Washington Center
12:10PM 34.4958 -79.6944 27° Northeast 443 510 35,000  Level Washington Center
12:11PM 34.6067 -79.6217 28° Northeast 438 504 35,000  Level Washington Center
12:12PM 34.7136 -79.5486 29° Northeast 438 504 35,000  Level Washington Center
12:13PM 34.8242 -79.4806 27° Northeast 443 510 35,000  Level Washington Center
12:14PM 34.9350 -79.4075 28° Northeast 443 510 35,000  Level Washington Center
12:15PM 35.0439 -79.3364 28° Northeast 438 504 35,000  Level Washington Center
12:16PM 35.1525 -79.2653 28° Northeast 438 504 35,000  Level Washington Center
12:17PM 35.2611 -79.1939 28° Northeast 438 504 35,000  Level Washington Center
12:18PM 35.3717 -79.1200 29° Northeast 445 512 35,000  Level Washington Center
12:19PM 35.4781 -79.0533 27° Northeast 438 504 35,000  Level Washington Center
12:20PM 35.5864 -78.9814 28° Northeast 438 504 35,000  Level Washington Center
12:21PM 35.6972 -78.9042 29° Northeast 438 504 35,000  Level Washington Center
12:22PM 35.8181 -78.8272 27° Northeast 443 510 35,000  Level Washington Center
12:23PM 35.9225 -78.7469 32° Northeast 443 510 35,000  Level Washington Center
12:24PM 36.0231 -78.6583 35° Northeast 443 510 35,000  Level Washington Center
12:25PM 36.1233 -78.5672 36° Northeast 443 510 35,000  Level Washington Center
12:26PM 36.2236 -78.4783 36° Northeast 443 510 35,000  Level Washington Center
12:27PM 36.3217 -78.3917 35° Northeast 438 504 35,000  Level Washington Center
12:28PM 36.4217 -78.3050 35° Northeast 438 504 35,000  Level Washington Center
12:29PM 36.5197 -78.2153 36° Northeast 438 504 35,000  Level Washington Center
12:30PM 36.6047 -78.1353 37° Northeast 438 504 35,000  Level Washington Center
12:31PM 36.7047 -78.0453 36° Northeast 432 497 35,000  Level Washington Center
12:32PM 36.8044 -77.9578 35° Northeast 437 503 35,000  Level Washington Center
12:33PM 36.9003 -77.8592 39° Northeast 442 509 35,000  Level Washington Center
12:34PM 36.9939 -77.7633 39° Northeast 442 509 35,000  Level Washington Center
12:35PM 37.0894 -77.6644 40° Northeast 442 509 35,000  Level Washington Center
12:36PM 37.1872 -77.5653 39° Northeast 442 509 35,000  Level Washington Center
12:37PM 37.2828 -77.4633 40° Northeast 442 509 35,000  Level Washington Center
12:38PM 37.3781 -77.3692 38° Northeast 442 509 35,000  Level Washington Center
12:39PM 37.4753 -77.2667 40° Northeast 442 509 35,000  Level Washington Center
12:40PM 37.5728 -77.1667 39° Northeast 442 509 35,000  Level Washington Center
12:41PM 37.6658 -77.0636 41° Northeast 447 514 35,000  Level Washington Center
12:42PM 37.7672 -76.9553 40° Northeast 442 509 35,000 -60 Level Washington Center
12:44PM 37.9547 -76.7558 40° Northeast 436 502 34,900 -420 Descending Washington Center
12:45PM 38.0411 -76.6675 39° Northeast 442 509 33,800 -1,200 Descending Washington Center
12:46PM 38.1339 -76.5658 41° Northeast 437 503 32,600 -1,380 Descending Washington Center
12:47PM 38.2264 -76.4639 41° Northeast 437 503 31,100 -1,560 Descending Washington Center
12:48PM 38.3356 -76.3594 37° Northeast 437 503 29,600 -1,500 Descending Washington Center
12:49PM 38.4339 -76.2650 37° Northeast 437 503 28,100 -1,320 Descending Washington Center
12:50PM 38.5325 -76.1728 36° Northeast 437 503 27,000 -600 Descending Washington Center
12:51PM 38.6225 -76.0914 35° Northeast 437 503 27,000  Level Washington Center
12:52PM 38.7186 -76.0042 35° Northeast 432 497 27,000  Level Washington Center
12:53PM 38.8169 -75.9139 36° Northeast 432 497 27,000  Level Washington Center
12:54PM 38.9131 -75.8158 38° Northeast 432 497 27,000  Level Washington Center
12:55PM 39.0133 -75.7253 35° Northeast 432 497 27,000  Level Washington Center
12:56PM 39.1114 -75.6317 37° Northeast 432 497 27,000  Level Washington Center
12:57PM 39.2092 -75.5406 36° Northeast 432 497 27,000 -660 Level Washington Center
12:58PM 39.3092 -75.4494 35° Northeast 432 497 25,700 -1,740 Descending Washington Center
12:59PM 39.4050 -75.3633 35° Northeast 426 490 23,500 -2,220 Descending Washington Center
01:00PM 39.4964 -75.2822 34° Northeast 412 474 21,300 -2,280 Descending Washington Center
01:01PM 39.5858 -75.1983 36° Northeast 402 463 19,100 -2,220 Descending Washington Center
01:02PM 39.6833 -75.1089 35° Northeast 397 457 17,000 -1,920 Descending Washington Center
01:03PM 39.7603 -75.0436 33° Northeast 380 437 15,300 -1,680 Descending Washington Center
01:04PM 39.8536 -74.9617 34° Northeast 369 425 13,700 -1,200 Descending Washington Center
01:05PM 39.9667 -74.8333 41° Northeast 357 411 12,300 -1,020 Descending New York TRACON
01:06PM 40.0333 -74.7333 49° Northeast 361 415 11,200 -1,200 Descending New York TRACON
01:07PM 40.1000 -74.6500 44° Northeast 346 398 10,100 -600 Descending New York TRACON
01:08PM 40.1667 -74.5500 49° Northeast 344 396 10,100  Level New York TRACON
01:09PM 40.2333 -74.4500 49° Northeast 342 394 10,100  Level New York TRACON
01:10PM 40.3000 -74.3667 44° Northeast 340 391 10,100 -540 Level New York TRACON
01:11PM 40.3667 -74.3000 37° Northeast 289 333 9,100 -1,380 Descending New York TRACON
01:12PM 40.4167 -74.2167 52° Northeast 284 327 7,400 -1,500 Descending New York TRACON
01:13PM 40.4667 -74.1500 45° Northeast 272 313 6,200 -1,500 Descending New York TRACON
01:14PM 40.5333 -74.1000 30° Northeast 269 310 4,400 -1,080 Descending New York TRACON
01:15PM 40.6000 -74.0500 30° Northeast 272 313 4,100 -240 Descending New York TRACON
01:16PM 40.6833 -74.0333 North 274 315 4,000 -60 Descending New York TRACON
01:17PM 40.7500 -74.0167 11° North 276 318 4,000 -120 Level New York TRACON
01:18PM 40.8167 -73.9667 30° Northeast 268 308 3,800 -540 Descending New York TRACON
01:19PM 40.8833 -73.9000 37° Northeast 258 297 3,000 -720 Descending New York TRACON
01:20PM 40.9000 -73.8500 66° East 202 232 2,400 -780 Descending New York TRACON
01:21PM 40.8667 -73.8167 143° Southeast 165 190 1,500 -780 Descending New York TRACON
01:22PM 40.8167 -73.8333 194° South 150 173 900 -660 Descending New York TRACON
01:23PM 40.8000 -73.8667 237° Southwest 143 165 200 -720 Descending New York TRACON
01:25PM 40.7772 -73.8726 201° Southwest  Level Estimated
01:32PM 40.7772 -73.8726 201° Southwest  Level Estimated
01:33PM 40.7772 -73.8726 201° Southwest  Level Estimated